Time;durP1;ratioP1;P1;durP2;ratioP2;P2;SDS_P1;SDS_P2;PMS_P1;PMS_P2;Temp;Humidity;BMP_temperature;BMP_pressure;BME280_temperature;BME280_humidity;BME280_pressure;Samples;Min_cycle;Max_cycle;Signal;HPM_P1;HPM_P2
2024/01/23 00:02:15;;;;;;;23.80;4.18;;;;;;;-144.05;77.82;57031.50;5092742;28;20028;-79
2024/01/23 00:04:41;;;;;;;27.23;4.07;;;;;;;-144.05;77.98;57003.88;5090803;28;20024;-77
2024/01/23 00:07:07;;;;;;;26.85;4.25;;;;;;;-144.05;77.34;56974.16;5092797;28;20085;-78
2024/01/23 00:09:34;;;;;;;20.98;3.45;;;;;;;-144.05;76.96;56984.78;5091000;28;20081;-77
2024/01/23 00:12:02;;;;;;;14.40;3.55;;;;;;;-144.05;76.17;57014.50;5092845;28;20106;-78
2024/01/23 00:14:28;;;;;;;19.50;3.67;;;;;;;-144.05;75.98;56982.66;5091217;28;20073;-78
2024/01/23 00:16:54;;;;;;;22.33;4.00;;;;;;;-144.05;76.52;56993.25;5092332;28;20027;-79
2024/01/23 00:19:20;;;;;;;18.45;4.03;;;;;;;-144.05;75.89;56972.03;5092424;28;20116;-79
2024/01/23 00:21:47;;;;;;;24.38;4.80;;;;;;;-144.05;76.44;56978.41;5092879;28;20107;-82
2024/01/23 00:24:13;;;;;;;25.88;4.45;;;;;;;-144.05;76.03;56997.50;5090994;28;20056;-79
2024/01/23 00:26:39;;;;;;;18.83;3.80;;;;;;;-144.05;76.05;57014.50;5092317;28;20374;-79
2024/01/23 00:29:07;;;;;;;10.68;3.35;;;;;;;-144.05;75.39;56999.63;5094519;28;20187;-80
2024/01/23 00:31:34;;;;;;;18.55;3.92;;;;;;;-144.05;74.58;56995.38;5091039;28;20123;-78
2024/01/23 00:34:01;;;;;;;19.25;3.78;;;;;;;-144.05;73.80;57008.13;5092236;28;20531;-80
2024/01/23 00:36:27;;;;;;;24.38;4.15;;;;;;;-144.05;74.53;56995.38;5092938;28;20101;-80
2024/01/23 00:38:53;;;;;;;22.17;4.38;;;;;;;-144.05;74.67;56991.13;5091145;28;20027;-79
2024/01/23 00:41:19;;;;;;;24.50;4.03;;;;;;;-144.05;74.59;56980.53;5091520;28;20035;-80
2024/01/23 00:43:46;;;;;;;17.73;3.33;;;;;;;-144.05;75.58;56997.50;5091380;28;20055;-77
2024/01/23 00:46:12;;;;;;;27.92;4.25;;;;;;;-144.05;75.82;57006.00;5091111;28;20027;-78
2024/01/23 00:48:38;;;;;;;12.70;3.10;;;;;;;-144.05;75.52;56980.53;5092481;28;20036;-80
2024/01/23 00:51:05;;;;;;;15.65;3.33;;;;;;;-144.05;76.28;56980.53;5092481;28;20031;-76
2024/01/23 00:53:31;;;;;;;22.27;3.75;;;;;;;-144.05;75.94;57006.00;5090675;28;20055;-78
2024/01/23 00:55:58;;;;;;;24.58;3.90;;;;;;;-144.05;75.01;57003.88;5091554;28;20115;-79
2024/01/23 00:58:24;;;;;;;25.33;3.83;;;;;;;-144.05;74.42;57025.13;5091896;28;20035;-79
2024/01/23 01:00:51;;;;;;;24.42;4.50;;;;;;;-144.05;73.82;56976.28;5099056;28;20028;-81
2024/01/23 01:03:17;;;;;;;18.00;3.72;;;;;;;-144.05;73.79;56978.41;5090227;28;20346;-78
2024/01/23 01:05:45;;;;;;;16.55;3.10;;;;;;;-144.05;73.49;56997.50;5096590;28;20027;-79
2024/01/23 01:08:11;;;;;;;20.05;3.42;;;;;;;-144.05;73.35;56995.38;5116194;28;20061;-78
2024/01/23 01:10:38;;;;;;;21.00;3.35;;;;;;;-144.05;72.66;57006.00;5097487;28;20036;-78
2024/01/23 01:13:04;;;;;;;19.75;3.78;;;;;;;-144.05;73.13;56984.78;5100989;28;20031;-77
2024/01/23 01:15:30;;;;;;;18.48;3.70;;;;;;;-144.05;73.28;56989.00;5097065;28;20049;-79
2024/01/23 01:17:57;;;;;;;19.05;3.28;;;;;;;-144.05;72.86;57001.75;5092134;28;20059;-77
2024/01/23 01:20:23;;;;;;;19.42;3.08;;;;;;;-144.05;73.00;56986.91;5090712;28;20115;-78
2024/01/23 01:22:49;;;;;;;10.68;2.90;;;;;;;-144.05;72.60;56980.53;5091982;28;20020;-79
2024/01/23 01:25:15;;;;;;;18.88;3.42;;;;;;;-144.05;72.73;56972.03;5097551;28;20134;-81
2024/01/23 01:27:42;;;;;;;15.48;3.20;;;;;;;-144.05;72.19;56989.00;5090692;28;20028;-80
2024/01/23 01:30:08;;;;;;;17.67;3.20;;;;;;;-144.05;71.72;56993.25;5092182;28;20028;-78
2024/01/23 01:32:35;;;;;;;13.02;3.58;;;;;;;-144.05;71.34;56999.63;5092488;28;20391;-79
2024/01/23 01:35:01;;;;;;;17.95;3.13;;;;;;;-144.05;71.26;56999.63;5093869;28;20078;-79
2024/01/23 01:37:27;;;;;;;22.33;4.43;;;;;;;-144.05;70.53;56974.16;5094963;28;20081;-77
2024/01/23 01:39:53;;;;;;;23.77;4.68;;;;;;;-144.05;70.06;56984.78;5103290;28;20104;-80
2024/01/23 01:42:19;;;;;;;17.25;3.35;;;;;;;-144.05;69.95;56974.16;5093494;28;20470;-81
2024/01/23 01:44:46;;;;;;;16.35;3.00;;;;;;;-144.05;70.37;56976.28;5092878;28;20032;-80
2024/01/23 01:47:12;;;;;;;16.83;3.03;;;;;;;-144.05;70.14;57001.75;5101769;28;20028;-81
2024/01/23 01:49:39;;;;;;;19.15;4.18;;;;;;;-144.05;70.69;57003.88;5097020;28;20024;-84
2024/01/23 01:52:05;;;;;;;16.05;3.45;;;;;;;-144.05;70.30;57016.63;5096003;28;20077;-79
2024/01/23 01:54:32;;;;;;;18.42;2.97;;;3.80;99.90;;;-144.05;70.29;56997.50;5094861;28;20035;-82
2024/01/23 01:57:00;;;;;;;13.48;2.38;;;7.30;99.90;;;-144.05;68.89;57006.00;5092176;28;20477;-79
2024/01/23 01:59:26;;;;;;;16.10;2.75;;;;;;;-144.05;67.95;56974.16;5095721;28;20051;-79
2024/01/23 02:01:53;;;;;;;14.20;4.18;;;7.00;99.90;;;-144.05;69.08;56984.78;5094342;28;20035;-82
2024/01/23 02:04:19;;;;;;;12.57;3.13;;;;;;;-144.05;69.40;56980.53;5091908;28;20035;-81
2024/01/23 02:06:47;;;;;;;13.23;3.33;;;6.90;99.90;;;-144.05;70.58;57010.25;5092512;28;20036;-80
2024/01/23 02:09:13;;;;;;;15.13;2.50;;;;;;;-144.05;71.08;56995.38;5096404;28;20115;-80
2024/01/23 02:12:00;;;;;;;20.30;3.92;;;7.00;99.90;;;-144.05;71.45;56965.66;5096759;28;20348;-79
2024/01/23 02:14:27;;;;;;;17.95;3.05;;;7.20;99.90;;;-144.05;70.81;56997.50;5101258;28;20039;-80
2024/01/23 02:16:54;;;;;;;16.20;2.85;;;;;;;-144.05;70.79;57008.13;5104067;28;20024;-80
2024/01/23 02:19:20;;;;;;;16.23;3.50;;;;;;;-144.05;71.18;57010.25;5096938;28;20028;-80
2024/01/23 02:21:46;;;;;;;15.50;2.72;;;;;;;-144.05;70.62;56997.50;5097312;28;20504;-80
2024/01/23 02:24:13;;;;;;;19.08;3.22;;;;;;;-144.05;70.50;57001.75;5095404;28;20043;-80
2024/01/23 02:26:39;;;;;;;23.73;3.03;;;;;;;-144.05;70.59;56976.28;5097480;28;20031;-80
2024/01/23 02:29:05;;;;;;;18.67;3.83;;;;;;;-144.05;71.25;56986.91;5097564;28;20711;-81
2024/01/23 02:31:31;;;;;;;19.80;2.88;;;;;;;-144.05;71.63;56989.00;5096008;28;20055;-79
2024/01/23 02:33:58;;;;;;;20.05;3.72;;;;;;;-144.05;71.76;57003.88;5097187;28;20024;-81
2024/01/23 02:36:24;;;;;;;14.00;2.92;;;;;;;-144.05;71.76;57003.88;5098019;28;20055;-80
2024/01/23 02:38:50;;;;;;;22.35;5.03;;;;;;;-144.05;71.54;56993.25;5099629;28;20032;-79
2024/01/23 02:41:16;;;;;;;14.07;3.55;;;;;;;-144.05;71.20;57001.75;5100883;28;20027;-79
2024/01/23 02:43:42;;;;;;;15.52;3.92;;;;;;;-144.05;70.56;56991.13;5098295;28;20088;-78
2024/01/23 02:46:09;;;;;;;12.60;2.42;;;;;;;-144.05;70.45;56986.91;5106903;28;20027;-81
2024/01/23 02:48:35;;;;;;;15.05;4.40;;;;;;;-144.05;70.07;56980.53;5105176;28;20039;-80
2024/01/23 02:51:01;;;;;;;14.02;2.88;;;;;;;-144.05;68.77;56976.28;5093299;28;20032;-79
2024/01/23 02:53:28;;;;;;;14.80;2.85;;;;;;;-144.05;68.07;57008.13;5093098;28;20024;-80
2024/01/23 02:55:54;;;;;;;13.23;2.97;;;;;;;-144.05;67.47;57001.75;5096736;28;20517;-79
2024/01/23 02:58:21;;;;;;;20.60;3.08;;;;;;;-144.05;67.83;57018.75;5099522;28;20028;-81
2024/01/23 03:00:47;;;;;;;17.75;2.92;;;;;;;-144.05;67.73;56980.53;5100732;28;20109;-80
2024/01/23 03:03:14;;;;;;;15.25;2.75;;;;;;;-144.05;68.10;56991.13;5099378;28;20020;-82
2024/01/23 03:05:40;;;;;;;13.93;2.60;;;;;;;-144.05;68.94;57006.00;5102161;28;20504;-83
2024/01/23 03:08:07;;;;;;;14.80;2.50;;;;;;;-144.05;68.58;56967.78;5112910;28;20084;-81
2024/01/23 03:10:33;;;;;;;20.08;3.60;;;;;;;-144.05;68.09;57001.75;5111229;28;20028;-76
2024/01/23 03:12:59;;;;;;;12.48;4.07;;;;;;;-144.05;68.17;57012.38;5109607;28;20023;-80
2024/01/23 03:15:26;;;;;;;17.77;3.00;;;;;;;-144.05;68.51;57012.38;5101885;28;20050;-78
2024/01/23 03:17:52;;;;;;;17.95;2.95;;;;;;;-144.05;68.53;57003.88;5108319;28;20103;-81
2024/01/23 03:20:19;;;;;;;21.48;3.75;;;;;;;-144.05;68.86;57006.00;5119130;28;20030;-80
2024/01/23 03:22:45;;;;;;;16.90;3.58;;;;;;;-144.05;69.06;56982.66;5126984;27;20055;-78
2024/01/23 03:25:11;;;;;;;13.77;2.88;;;;;;;-144.05;68.45;57018.75;5109164;28;20115;-80
2024/01/23 03:27:37;;;;;;;16.15;3.08;;;;;;;-144.05;67.53;56984.78;5101303;28;20028;-78
2024/01/23 03:30:04;;;;;;;22.05;3.53;;;;;;;-144.05;67.12;57008.13;5097731;28;20101;-81
2024/01/23 03:32:30;;;;;;;15.75;3.67;;;;;;;-144.05;67.82;56991.13;5097099;28;20059;-80
2024/01/23 03:34:57;;;;;;;21.08;3.45;;;;;;;-144.05;66.96;56978.41;5110919;28;20119;-81
2024/01/23 03:37:23;;;;;;;15.45;2.15;;;;;;;-144.05;66.91;56991.13;5094716;28;20065;-80
2024/01/23 03:39:49;;;;;;;17.42;3.15;;;;;;;-144.05;66.85;56993.25;5094760;28;20024;-77
2024/01/23 03:42:16;;;;;;;15.15;3.45;;;;;;;-144.05;66.56;56986.91;5101918;28;20032;-80
2024/01/23 03:44:42;;;;;;;24.33;3.33;;;;;;;-144.05;66.33;56989.00;5092536;28;20039;-78
2024/01/23 03:47:08;;;;;;;17.52;3.00;;;;;;;-144.05;66.14;56989.00;5105387;28;20027;-81
2024/01/23 03:49:35;;;;;;;14.32;3.45;;;;;;;-144.05;65.90;56993.25;5098077;28;20043;-80
2024/01/23 03:52:01;;;;;;;19.90;3.78;;;;;;;-144.05;65.94;56995.38;5093992;28;20085;-80
2024/01/23 03:54:27;;;;;;;19.83;3.10;;;;;;;-144.05;65.90;56986.91;5092209;28;20048;-81
2024/01/23 03:56:54;;;;;;;19.92;4.15;;;;;;;-144.05;66.14;56995.38;5101020;28;20012;-80
2024/01/23 03:59:20;;;;;;;21.17;3.72;;;;;;;-144.05;65.94;56997.50;5127321;28;20132;-79
2024/01/23 04:01:46;;;;;;;16.17;4.00;;;;;;;-144.05;66.36;56995.38;5111488;28;20060;-79
2024/01/23 04:04:12;;;;;;;26.30;4.45;;;;;;;-144.05;66.50;57001.75;5092353;28;20027;-78
2024/01/23 04:06:38;;;;;;;24.70;3.58;;;;;;;-144.05;66.73;57003.88;5091868;28;20028;-79
2024/01/23 04:09:05;;;;;;;15.15;3.08;;;;;;;-144.05;66.21;57006.00;5092654;28;20024;-80
2024/01/23 04:11:31;;;;;;;11.75;2.75;;;;;;;-144.05;66.16;57001.75;5091814;28;20573;-80
2024/01/23 04:13:57;;;;;;;15.50;2.90;;;;;;;-144.05;67.05;56969.91;5092636;28;20028;-79
2024/01/23 04:16:24;;;;;;;20.30;3.30;;;;;;;-144.05;66.50;57012.38;5092934;28;20056;-80
2024/01/23 04:18:54;;;;;;;15.43;2.67;;;;;;;-144.05;65.99;56978.41;5091576;28;20038;-80
2024/01/23 04:21:21;;;;;;;12.68;3.38;;;;;;;-144.05;65.95;56993.25;5093089;28;20028;-80
2024/01/23 04:23:47;;;;;;;20.63;3.33;;;;;;;-144.05;65.70;56993.25;5092797;28;20024;-80
2024/01/23 04:26:15;;;;;;;14.63;3.30;;;;;;;-144.05;67.09;56978.41;5106146;28;20101;-82
2024/01/23 04:28:41;;;;;;;14.60;3.45;;;;;;;-144.05;67.17;57018.75;5095105;28;20035;-76
2024/01/23 04:31:07;;;;;;;13.60;3.47;;;7.00;99.90;;;-144.05;66.79;56989.00;5090615;28;20434;-80
2024/01/23 04:33:33;;;;;;;18.05;3.65;;;;;;;-144.05;66.83;56986.91;5095077;28;20035;-82
2024/01/23 04:36:00;;;;;;;16.15;3.28;;;;;;;-144.05;66.81;57020.88;5090814;28;20123;-79
2024/01/23 04:38:26;;;;;;;17.73;3.45;;;;;;;-144.05;66.92;56989.00;5092225;28;20134;-81
2024/01/23 04:40:52;;;;;;;18.83;3.55;;;;;;;-144.05;67.36;56999.63;5092096;28;20035;-76
2024/01/23 04:43:18;;;;;;;18.88;3.03;;;;;;;-144.05;66.93;56982.66;5092544;28;20028;-79
2024/01/23 04:45:45;;;;;;;10.82;2.95;;;;;;;-144.05;68.18;56991.13;5091289;28;20028;-80
2024/01/23 04:48:11;;;;;;;20.58;3.28;;;;;;;-144.05;67.08;56986.91;5090838;28;20027;-76
2024/01/23 04:50:37;;;;;;;17.45;3.33;;;;;;;-144.05;67.39;57012.38;5092796;28;20031;-80
2024/01/23 04:53:03;;;;;;;18.85;3.63;;;;;;;-144.05;67.93;57008.13;5092351;28;20028;-76
2024/01/23 04:55:29;;;;;;;20.80;3.22;;;;;;;-144.05;67.62;56995.38;5091529;28;20107;-79
2024/01/23 04:57:56;;;;;;;14.95;2.85;;;;;;;-144.05;67.82;56993.25;5090591;28;20039;-80
2024/01/23 05:00:22;;;;;;;15.27;3.08;;;;;;;-144.05;67.97;56984.78;5091489;28;20071;-79
2024/01/23 05:02:48;;;;;;;13.13;2.85;;;;;;;-144.05;67.82;57010.25;5091649;28;20028;-79
2024/01/23 05:05:14;;;;;;;14.85;2.75;;;;;;;-144.05;68.36;57003.88;5098916;28;20028;-81
2024/01/23 05:07:40;;;;;;;15.02;3.88;;;;;;;-144.05;68.40;57003.88;5098819;28;20107;-80
2024/01/23 05:10:07;;;;;;;15.65;4.03;;;;;;;-144.05;68.84;56999.63;5091994;28;20111;-79
2024/01/23 05:12:34;;;;;;;23.88;5.32;;;;;;;-144.05;68.10;56989.00;5090726;28;20042;-79
2024/01/23 05:15:01;;;;;;;17.42;3.58;;;;;;;-144.05;68.40;56986.91;5091775;28;20024;-80
2024/01/23 05:17:27;;;;;;;20.10;3.20;;;;;;;-144.05;68.35;57014.50;5091780;28;20028;-80
2024/01/23 05:19:53;;;;;;;15.73;2.83;;;;;;;-144.05;68.53;57018.75;5090040;28;20484;-81
2024/01/23 05:22:20;;;;;;;24.85;3.65;;;;;;;-144.05;69.15;57003.88;5091601;28;20028;-81
2024/01/23 05:24:46;;;;;;;14.48;3.03;;;;;;;-144.05;68.66;56980.53;5091210;28;20056;-79
2024/01/23 05:27:12;;;;;;;9.00;2.42;;;;;;;-144.05;69.06;57001.75;5089821;28;20145;-79
2024/01/23 05:29:38;;;;;;;21.05;4.60;;;;;;;-144.05;68.82;57001.75;5091511;28;20048;-80
2024/01/23 05:32:05;;;;;;;17.45;4.18;;;;;;;-144.05;69.18;57003.88;5091340;28;20438;-80
2024/01/23 05:34:31;;;;;;;21.80;3.58;;;;;;;-144.05;69.06;57023.00;5089539;28;20058;-79
2024/01/23 05:36:58;;;;;;;18.67;3.63;;;6.50;99.90;;;-144.05;69.40;56997.50;5091074;28;20031;-80
2024/01/23 05:39:26;;;;;;;22.15;3.95;;;;;;;-144.05;69.19;56993.25;5091321;28;20554;-80
2024/01/23 05:41:52;;;;;;;19.02;2.90;;;;;;;-144.05;68.97;57010.25;5091283;28;20035;-80
2024/01/23 05:44:19;;;;;;;20.48;3.50;;;;;;;-144.05;69.14;57033.63;5092055;28;20054;-79
2024/01/23 05:46:45;;;;;;;27.88;3.60;;;;;;;-144.05;68.87;57018.75;5093109;28;20122;-78
2024/01/23 05:49:11;;;;;;;22.48;3.40;;;;;;;-144.05;68.78;56999.63;5095867;28;20024;-78
2024/01/23 05:51:37;;;;;;;17.05;3.95;;;;;;;-144.05;69.01;57006.00;5102660;28;20035;-83
2024/01/23 05:54:03;;;;;;;19.40;2.95;;;7.20;99.90;;;-144.05;69.23;56965.66;5097097;28;20035;-83
2024/01/23 05:56:29;;;;;;;20.77;4.13;;;;;;;-144.05;69.21;56986.91;5098834;28;20081;-80
2024/01/23 05:58:56;;;;;;;18.83;3.47;;;;;;;-144.05;69.21;57029.38;5103262;28;20050;-80
2024/01/23 06:01:22;;;;;;;21.27;4.22;;;;;;;-144.05;68.56;56982.66;5094323;28;20521;-79
2024/01/23 06:03:48;;;;;;;24.98;4.65;;;;;;;-144.05;68.42;57020.88;5092576;28;20032;-81
2024/01/23 06:06:16;;;;;;;25.50;4.00;;;;;;;-144.05;67.98;56972.03;5097510;28;20027;-80
2024/01/23 06:08:42;;;;;;;13.75;3.50;;;;;;;-144.05;69.67;56997.50;5112196;28;20500;-81
2024/01/23 06:11:09;;;;;;;21.13;4.13;;;;;;;-144.05;69.50;57008.13;5115271;28;20085;-80
2024/01/23 06:13:34;;;;;;;21.25;4.10;;;7.20;99.90;;;-144.05;68.92;56991.13;5095004;28;20413;-78
2024/01/23 06:16:01;;;;;;;13.57;2.65;;;;;;;-144.05;70.06;56993.25;5095013;28;20035;-80
2024/01/23 06:18:27;;;;;;;19.88;3.03;;;;;;;-144.05;69.13;56989.00;5093185;28;20024;-80
2024/01/23 06:20:53;;;;;;;17.98;3.72;;;;;;;-144.05;69.64;56997.50;5095576;28;20061;-81
2024/01/23 06:23:19;;;;;;;22.50;4.53;;;;;;;-144.05;69.98;57008.13;5110328;28;20028;-78
2024/01/23 06:25:45;;;;;;;25.08;3.17;;;;;;;-144.05;68.91;56993.25;5102306;28;20021;-78
2024/01/23 06:28:11;;;;;;;17.98;3.55;;;;;;;-144.05;69.24;57006.00;5101436;28;20150;-80
2024/01/23 06:30:38;;;;;;;19.92;4.32;;;;;;;-144.05;69.70;57001.75;5094258;28;20086;-79
2024/01/23 06:33:05;;;;;;;20.83;3.45;;;;;;;-144.05;69.80;56995.38;5094943;28;20503;-80
2024/01/23 06:35:32;;;;;;;20.17;4.30;;;;;;;-144.05;69.42;56969.91;5093355;28;20032;-78
2024/01/23 06:37:58;;;;;;;16.83;3.08;;;;;;;-144.05;69.67;57006.00;5110865;28;20023;-76
2024/01/23 06:40:24;;;;;;;17.33;3.58;;;;;;;-144.05;69.75;56999.63;5092822;28;20040;-79
2024/01/23 06:42:50;;;;;;;30.05;3.92;;;;;;;-144.05;69.85;56999.63;5093871;28;20046;-79
2024/01/23 06:45:16;;;;;;;19.45;5.00;;;;;;;-144.05;70.19;57003.88;5093873;28;20070;-82
2024/01/23 06:47:43;;;;;;;20.90;4.43;;;;;;;-144.05;70.31;56989.00;5100742;28;20051;-75
2024/01/23 06:50:09;;;;;;;22.92;4.10;;;;;;;-144.05;69.97;57010.25;5113008;28;20084;-80
2024/01/23 06:52:35;;;;;;;20.73;3.25;;;;;;;-144.05;69.94;57012.38;5105502;28;20103;-82
2024/01/23 06:55:02;;;;;;;19.05;3.97;;;;;;;-144.05;70.28;57025.13;5097371;28;20036;-83
2024/01/23 06:57:29;;;;;;;24.65;3.85;;;;;;;-144.05;70.26;56972.03;5098544;28;20085;-83
2024/01/23 06:59:55;;;;;;;12.48;3.25;;;;;;;-144.05;69.92;56980.53;5103333;28;20024;-82
2024/01/23 07:02:21;;;;;;;19.30;3.40;;;;;;;-144.05;70.01;57046.38;5097111;28;20039;-80
2024/01/23 07:04:48;;;;;;;20.55;5.05;;;;;;;-144.05;70.21;57003.88;5100461;28;20028;-79
2024/01/23 07:07:14;;;;;;;27.80;4.60;;;;;;;-144.05;71.03;57010.25;5113663;28;20028;-80
2024/01/23 07:09:40;;;;;;;21.80;4.00;;;;;;;-144.05;70.39;57006.00;5100582;28;20028;-82
2024/01/23 07:12:07;;;;;;;23.10;3.78;;;6.20;99.90;;;-144.05;70.81;56986.91;5099039;28;20027;-81
2024/01/23 07:14:33;;;;;;;23.42;4.40;;;;;;;-144.05;71.66;57014.50;5119531;28;20036;-81
2024/01/23 07:17:00;;;;;;;22.20;3.17;;;;;;;-144.05;71.75;57001.75;5097456;28;20477;-81
2024/01/23 07:19:26;;;;;;;16.02;3.78;;;;;;;-144.05;70.90;56993.25;5095533;28;20036;-80
2024/01/23 07:21:52;;;;;;;19.88;4.85;;;4.30;99.90;;;-144.05;70.73;56999.63;5110794;28;20122;-79
2024/01/23 07:24:18;;;;;;;26.95;2.83;;;;;;;-144.05;71.38;56993.25;5109866;28;20024;-81
2024/01/23 07:26:44;;;;;;;24.95;5.40;;;;;;;-144.05;71.08;57027.25;5105539;28;20063;-80
2024/01/23 07:29:11;;;;;;;22.23;3.25;;;;;;;-144.05;71.67;57001.75;5096447;28;20024;-82
2024/01/23 07:31:39;;;;;;;23.52;3.58;;;;;;;-144.05;71.30;56989.00;5102777;28;20031;-82
2024/01/23 07:34:05;;;;;;;20.23;3.65;;;;;;;-144.05;71.35;57010.25;5101774;28;20028;-80
2024/01/23 07:36:32;;;;;;;17.98;3.42;;;;;;;-144.05;70.62;57008.13;5103203;28;20350;-81
2024/01/23 07:38:58;;;;;;;19.05;4.45;;;;;;;-144.05;70.08;57010.25;5098925;28;20034;-82
2024/01/23 07:41:24;;;;;;;19.92;3.70;;;;;;;-144.05;70.47;57014.50;5108907;28;20057;-82
2024/01/23 07:43:50;;;;;;;24.17;4.68;;;;;;;-144.05;71.06;57020.88;5107263;28;20031;-81
2024/01/23 07:46:17;;;;;;;23.67;3.65;;;;;;;-144.05;70.98;57010.25;5108340;28;20020;-82
2024/01/23 07:48:43;;;;;;;25.10;3.72;;;;;;;-144.05;70.66;56995.38;5099648;28;20048;-79
2024/01/23 07:51:10;;;;;;;21.75;3.25;;;;;;;-144.05;71.35;56974.16;5105607;28;20099;-81
2024/01/23 07:53:36;;;;;;;25.35;3.47;;;6.50;99.90;;;-144.05;71.28;56997.50;5095952;28;20133;-81
2024/01/23 07:56:03;;;;;;;19.20;3.28;;;;;;;-144.05;71.87;57010.25;5098927;28;20032;-79
2024/01/23 07:58:29;;;;;;;22.33;4.57;;;;;;;-144.05;70.78;57010.25;5097459;28;20031;-79
2024/01/23 08:00:55;;;;;;;18.88;3.72;;;;;;;-144.05;70.83;57046.38;5098993;28;20028;-79
2024/01/23 08:03:22;;;;;;;20.92;3.13;;;;;;;-144.05;71.60;57014.50;5112132;28;20542;-79
2024/01/23 08:05:48;;;;;;;25.00;3.53;;;;;;;-144.05;71.10;57010.25;5097996;28;20480;-80
2024/01/23 08:08:14;;;;;;;16.00;3.55;;;;;;;-144.05;71.59;56993.25;5096835;28;20492;-81
2024/01/23 08:10:40;;;;;;;20.92;3.65;;;;;;;-144.05;72.07;56995.38;5103378;28;20028;-81
2024/01/23 08:13:06;;;;;;;15.63;3.17;;;;;;;-144.05;70.86;57014.50;5096836;28;20032;-82
2024/01/23 08:15:34;;;;;;;17.58;3.05;;;;;;;-144.05;71.14;57020.88;5104577;28;20042;-82
2024/01/23 08:18:03;;;;;;;22.58;3.85;;;;;;;-144.05;70.98;57014.50;5104481;28;20023;-80
2024/01/23 08:20:30;;;;;;;20.15;4.32;;;6.20;99.90;;;-144.05;70.91;56995.38;5097240;28;20028;-81
2024/01/23 08:22:56;;;;;;;27.73;5.15;;;;;;;-144.05;71.50;57023.00;5105103;28;20032;-81
2024/01/23 08:25:23;;;;;;;16.50;3.85;;;5.70;99.90;;;-144.05;71.13;57008.13;5102325;28;20019;-78
2024/01/23 08:27:49;;;;;;;18.92;3.88;;;6.40;99.90;;;-144.05;70.25;57010.25;5104455;28;20024;-81
2024/01/23 08:30:15;;;;;;;18.83;3.88;;;5.50;99.90;;;-144.05;70.21;56991.13;5110379;28;20472;-80
2024/01/23 08:32:42;;;;;;;22.73;4.63;;;;;;;-144.05;70.38;57001.75;5108289;28;20077;-79
2024/01/23 08:35:09;;;;;;;20.90;3.80;;;;;;;-144.05;70.08;56997.50;5098605;28;20171;-80
2024/01/23 08:37:35;;;;;;;18.15;3.40;;;;;;;-144.05;70.25;56980.53;5097138;28;20043;-80
2024/01/23 08:40:01;;;;;;;18.40;3.45;;;;;;;-144.05;70.69;57018.75;5113306;28;20036;-81
2024/01/23 08:42:27;;;;;;;27.73;4.10;;;;;;;-144.05;69.78;57008.13;5112685;28;20092;-80
2024/01/23 08:44:55;;;;;;;25.15;4.07;;;;;;;-144.05;69.62;57001.75;5114188;28;20031;-80
2024/01/23 08:47:22;;;;;;;24.88;4.20;;;;;;;-144.05;69.29;57012.38;5099685;28;20546;-79
2024/01/23 08:49:48;;;;;;;24.45;4.47;;;;;;;-144.05;69.56;56972.03;5097515;28;20118;-80
2024/01/23 08:52:15;;;;;;;22.42;3.17;;;;;;;-144.05;69.06;56989.00;5099172;28;20028;-79
2024/01/23 08:54:41;;;;;;;20.27;3.55;;;;;;;-144.05;68.58;56980.53;5105589;28;20039;-77
2024/01/23 08:57:09;;;;;;;19.17;3.13;;;;;;;-144.05;68.84;56989.00;5111705;28;20032;-78
2024/01/23 08:59:40;;;;;;;17.17;3.45;;;6.80;99.90;;;-144.05;69.03;56944.41;5100074;28;20020;-82
2024/01/23 09:02:06;;;;;;;16.40;4.30;;;6.80;99.90;;;-144.05;68.60;56997.50;5108787;28;20475;-82
2024/01/23 09:04:32;;;;;;;22.20;3.20;;;;;;;-144.05;68.19;56978.41;5100319;28;20024;-82
2024/01/23 09:06:58;;;;;;;20.00;4.03;;;;;;;-144.05;67.51;56989.00;5096343;28;20031;-80
2024/01/23 09:09:25;;;;;;;21.10;3.15;;;;;;;-144.05;67.52;56984.78;5101141;28;20057;-80
2024/01/23 09:11:51;;;;;;;19.70;3.10;;;6.70;99.90;;;-144.05;66.98;56974.16;5115750;27;20122;-79
2024/01/23 09:14:17;;;;;;;21.10;3.65;;;;;;;-144.05;66.82;56972.03;5108224;28;20036;-80
2024/01/23 09:16:43;;;;;;;11.55;3.45;;;;;;;-144.05;66.30;56986.91;5100448;28;20020;-80
2024/01/23 09:19:09;;;;;;;14.65;3.63;;;7.90;99.90;;;-144.05;65.95;56948.66;5105310;28;20062;-81
2024/01/23 09:21:35;;;;;;;22.65;4.22;;;;;;;-144.05;66.17;57008.13;5103126;28;20471;-79
2024/01/23 09:24:01;;;;;;;15.77;3.35;;;;;;;-144.05;65.82;56972.03;5104549;28;20031;-81
2024/01/23 09:26:28;;;;;;;20.05;3.67;;;;;;;-144.05;66.33;56995.38;5122355;28;20050;-80
2024/01/23 09:28:54;;;;;;;17.27;3.20;;;;;;;-144.05;65.72;56978.41;5104665;28;20471;-81
2024/01/23 09:31:21;;;;;;;19.15;3.78;;;;;;;-144.05;65.26;56993.25;5101911;28;20123;-81
2024/01/23 09:33:47;;;;;;;22.70;3.55;;;8.40;99.90;;;-144.05;64.79;56991.13;5122639;28;20029;-83
2024/01/23 09:36:13;;;;;;;17.35;4.22;;;;;;;-144.05;65.12;56989.00;5117426;28;20032;-84
2024/01/23 09:38:39;;;;;;;23.73;4.32;;;;;;;-144.05;65.63;56989.00;5112402;28;20054;-78
2024/01/23 09:41:11;;;;;;;15.90;4.05;;;6.40;99.90;;;-144.05;65.39;56991.13;5125034;28;20027;-80
2024/01/23 09:43:44;;;;;;;17.23;3.75;;;7.60;99.90;;;-144.05;65.29;56984.78;5116763;28;20034;-79
2024/01/23 09:46:13;;;;;;;21.00;3.40;;;7.50;99.90;;;-144.05;65.09;56982.66;5107883;28;20028;-78
2024/01/23 09:48:40;;;;;;;16.83;3.70;;;7.60;99.90;;;-144.05;65.77;56991.13;5100843;28;20091;-77
2024/01/23 09:51:14;;;;;;;17.13;3.40;;;7.60;99.90;;;-144.05;64.37;56989.00;5111914;28;20099;-79
2024/01/23 09:53:42;;;;;;;18.80;3.90;;;6.70;99.90;;;-144.05;65.05;56978.41;5107869;28;20016;-79
2024/01/23 09:56:10;;;;;;;14.23;3.83;;;6.50;99.90;;;-144.05;64.28;56952.91;5105798;28;20027;-79
2024/01/23 09:58:37;;;;;;;23.13;4.00;;;;;;;-144.05;64.15;56963.53;5107990;28;20016;-76
2024/01/23 10:01:05;;;;;;;19.00;3.65;;;7.20;99.90;;;-144.05;64.31;57010.25;5100426;28;20393;-80
2024/01/23 10:03:34;;;;;;;22.10;4.15;;;8.10;99.90;;;-144.05;64.42;56980.53;5107796;28;20028;-79
2024/01/23 10:06:04;;;;;;;18.80;3.45;;;7.90;99.90;;;-144.05;63.49;56989.00;5101065;28;20032;-80
2024/01/23 10:08:30;;;;;;;19.92;4.53;;;;;;;-144.05;63.57;56969.91;5107087;28;20020;-79
2024/01/23 10:11:01;;;;;;;19.60;4.10;;;8.10;99.90;;;-144.05;63.97;56986.91;5107964;28;20039;-79
2024/01/23 10:13:28;;;;;;;26.45;4.75;;;7.50;99.90;;;-144.05;62.85;56995.38;5099333;28;20054;-78
2024/01/23 10:15:55;;;;;;;20.88;3.53;;;;;;;-144.05;63.06;56984.78;5101949;28;20032;-78
2024/01/23 10:18:22;;;;;;;18.50;3.47;;;5.10;99.90;;;-144.05;62.89;56980.53;5118062;28;20032;-78
2024/01/23 10:20:48;;;;;;;21.95;3.92;;;;;;;-144.05;63.42;56980.53;5109271;28;20030;-79
2024/01/23 10:23:16;;;;;;;18.88;3.78;;;;;;;-144.05;62.94;56989.00;5119918;28;20032;-78
2024/01/23 10:25:43;;;;;;;22.58;4.82;;;;;;;-144.05;63.43;56955.03;5106061;28;20453;-78
2024/01/23 10:28:11;;;;;;;21.75;4.90;;;8.10;99.90;;;-144.05;63.33;56972.03;5102464;28;20028;-79
2024/01/23 10:30:41;;;;;;;15.90;3.70;;;8.20;99.90;;;-144.05;62.57;56965.66;5114754;28;20020;-77
2024/01/23 10:33:10;;;;;;;14.73;3.42;;;;;;;-144.05;61.93;56976.28;5111232;28;20031;-79
2024/01/23 10:35:36;;;;;;;22.92;4.28;;;;;;;-144.05;61.72;56972.03;5106283;28;20396;-78
2024/01/23 10:38:05;;;;;;;27.15;3.95;;;8.20;99.90;;;-144.05;62.72;56974.16;5102109;28;20024;-77
2024/01/23 10:40:32;;;;;;;23.10;4.75;;;8.30;99.90;;;-144.05;63.24;56957.16;5103526;28;20039;-77
2024/01/23 10:42:59;;;;;;;25.17;3.83;;;8.40;99.90;;;-144.05;61.60;56972.03;5112253;28;20028;-78
2024/01/23 10:45:27;;;;;;;22.17;4.22;;;;;;;-144.05;62.01;56993.25;5110094;28;20024;-76
2024/01/23 10:47:56;;;;;;;15.40;3.83;;;;;;;-144.05;61.30;56991.13;5113792;28;20024;-78
2024/01/23 10:50:23;;;;;;;20.63;3.58;;;;;;;-144.05;61.04;56976.28;5102704;28;20504;-81
2024/01/23 10:52:50;;;;;;;20.48;4.38;;;;;;;-144.05;61.32;56984.78;5109530;28;20618;-82
2024/01/23 10:55:18;;;;;;;15.55;4.22;;;8.50;99.90;;;-144.05;61.50;56978.41;5101733;28;20051;-80
2024/01/23 10:57:48;;;;;;;15.32;3.30;;;8.40;99.90;;;-144.05;62.48;56984.78;5108834;28;20058;-79